• Join FlightAware (Why Join?)
  • Login
  • US Flag 
12:52AM EDT


 

Airport Tracker/Info


-or-


 

Live Flight TrackerFlight Track Log ✈ DAL1778 ✈ 02-Sep-2013 ✈ KATL - KMEM

Flight Track Log - Related Links

Times and Time Zones

All times are in EDT time to prevent confusion due to time zone crossing. See the DAL1778 flight status page for this flight to view local times or setup timezone preferences in your user account.

Time Position Orientation Groundspeed Altitude Reporting Facility
EDT Latitude Longitude Course Direction KTS MPH feet Rate Location/Type
04:29PM 33.6500 -84.4500 284° West 159 183 2,300  Level Atlanta TRACON
04:30PM 33.6667 -84.5333 284° West 244 281 3,500 2,220 Climbing Atlanta TRACON
04:31PM 33.6833 -84.6167 284° West 255 293 6,800 2,460 Climbing Atlanta TRACON
04:33PM 33.6961 -84.7803 275° West 284 327 10,900 1,740 Climbing Atlanta Center
04:34PM 33.6806 -84.8950 261° West 319 367 12,100 1,680 Climbing Atlanta Center
04:35PM 33.6692 -85.0197 264° West 373 429 14,300 2,100 Climbing Atlanta Center
04:36PM 33.6556 -85.1519 263° West 394 453 16,300 1,920 Climbing Atlanta Center
04:37PM 33.6500 -85.2914 267° West 412 474 18,200 1,620 Climbing Atlanta Center
04:38PM 33.6506 -85.4489 270° West 422 486 19,600 1,440 Climbing Atlanta Center
04:39PM 33.6572 -85.5961 273° West 438 504 21,100 1,500 Climbing Atlanta Center
04:40PM 33.6614 -85.7458 272° West 453 521 22,700 1,320 Climbing Atlanta Center
04:41PM 33.6617 -85.8783 270° West 453 521 23,800 1,500 Climbing Atlanta Center
04:42PM 33.6592 -86.0353 269° West 464 534 25,700 1,740 Climbing Atlanta Center
04:43PM 33.6628 -86.1828 272° West 458 527 27,300 1,500 Climbing Atlanta Center
04:44PM 33.6644 -86.3225 271° West 446 513 28,800 1,320 Climbing Atlanta Center
04:45PM 33.6681 -86.4700 272° West 441 507 30,000 1,140 Climbing Atlanta Center
04:46PM 33.6692 -86.6147 271° West 441 507 31,100 900 Climbing Atlanta Center
04:47PM 33.6683 -86.7594 270° West 441 507 31,900 180 Climbing Atlanta Center
04:51PM 33.8461 -87.2658 293° West 441 507 32,000  Climbing Memphis Center
04:52PM 33.9056 -87.3939 299° West 434 499 32,000  Level Memphis Center
04:53PM 33.9647 -87.5172 300° West 434 499 32,000  Level Memphis Center
04:54PM 34.0242 -87.6481 299° West 434 499 32,000  Level Memphis Center
04:55PM 34.0811 -87.7742 299° West 434 499 32,000  Level Memphis Center
04:56PM 34.1461 -87.9000 302° West 434 499 32,000  Level Memphis Center
04:57PM 34.2092 -88.0264 301° West 434 499 32,000 -360 Level Memphis Center
04:58PM 34.2744 -88.1653 300° West 434 499 31,300 -1,620 Descending Memphis Center
04:59PM 34.3372 -88.3022 299° West 455 524 28,800 -1,800 Descending Memphis Center
05:00PM 34.4019 -88.4289 302° West 455 524 27,800 -960 Descending Memphis Center
05:01PM 34.4642 -88.5508 302° West 444 511 26,900 -1,080 Descending Memphis Center
05:02PM 34.5200 -88.6683 300° West 422 486 25,700 -1,980 Descending Memphis Center
05:03PM 34.5781 -88.7856 301° West 410 472 23,000 -2,580 Descending Memphis Center
05:04PM 34.6314 -88.8956 301° West 398 458 20,600 -2,340 Descending Memphis Center
05:05PM 34.6642 -89.0239 287° West 388 447 18,400 -2,280 Descending Memphis Center
05:06PM 34.6925 -89.1447 286° West 380 437 16,100 -2,100 Descending Memphis Center
05:07PM 34.7186 -89.2631 285° West 375 432 14,300 -1,800 Descending Memphis Center
05:08PM 34.7406 -89.3639 285° West 359 413 12,600 -2,100 Descending Memphis Center
05:09PM 34.7664 -89.4825 285° West 353 406 10,200 -1,800 Descending Memphis Center
05:10PM 34.8131 -89.5806 300° West 345 397 9,000 -600 Descending Memphis Center
05:11PM 34.8572 -89.6586 305° West 303 349 9,000 -900 Level Memphis Center
05:12PM 34.9325 -89.6706 353° North 256 295 7,200 -1,980 Descending Memphis Center
05:13PM 35.0033 -89.6725 359° North 256 295 5,100 -2,220 Descending Memphis Center
05:14PM 35.0536 -89.7203 322° Northwest 226 260 2,800 -1,440 Descending Memphis Center
05:15PM 35.0561 -89.7939 272° West 206 237 2,300 -480 Descending Memphis Center
05:16PM 35.0564 -89.8547 270° West 194 223 1,900 -660 Descending Memphis Center
05:17PM 35.0500 -89.9000 260° West 145 167 1,100 -840 Descending KMEM
05:21PM 35.0333 -89.9667 309° West  Level FlightAware Approximate
05:28PM 35.0424 -89.9767 309° West  Level Estimated